createdAt,value
2024-01-17T00:01:29.150Z,90.89
2024-01-17T00:06:33.067Z,89.79
2024-01-17T00:11:36.273Z,90.47
2024-01-17T00:16:40.777Z,90.91
2024-01-17T00:21:43.918Z,90.54
2024-01-17T00:26:47.137Z,90.00
2024-01-17T00:31:51.626Z,90.80
2024-01-17T00:36:55.003Z,91.46
2024-01-17T00:41:58.160Z,91.42
2024-01-17T00:47:02.657Z,91.15
2024-01-17T00:52:06.443Z,91.51
2024-01-17T00:57:09.675Z,90.91
2024-01-17T01:02:14.254Z,91.21
2024-01-17T01:07:17.397Z,91.12
2024-01-17T01:12:20.541Z,91.49
2024-01-17T01:17:25.085Z,91.28
2024-01-17T01:22:28.267Z,91.04
2024-01-17T01:27:31.393Z,90.99
2024-01-17T01:32:35.958Z,90.72
2024-01-17T01:37:39.136Z,91.19
2024-01-17T01:42:45.256Z,91.68
2024-01-17T01:47:49.916Z,90.72
2024-01-17T01:52:53.573Z,91.09
2024-01-17T01:57:56.829Z,91.21
2024-01-17T02:03:01.459Z,90.34
2024-01-17T02:08:05.244Z,89.49
2024-01-17T02:13:09.612Z,90.32
2024-01-17T02:18:14.334Z,91.02
2024-01-17T02:23:25.317Z,90.66
2024-01-17T02:28:31.100Z,90.78
2024-01-17T02:33:34.815Z,90.48
2024-01-17T02:38:38.164Z,90.64
2024-01-17T02:43:42.822Z,90.66
2024-01-17T02:48:46.061Z,91.22
2024-01-17T02:53:49.307Z,90.73
2024-01-17T02:58:53.793Z,90.25
2024-01-17T03:03:57.003Z,91.10
2024-01-17T03:09:00.285Z,89.94
2024-01-17T03:14:04.940Z,89.08
2024-01-17T03:19:08.835Z,89.64
2024-01-17T03:24:12.270Z,89.66
2024-01-17T03:29:16.789Z,89.60
2024-01-17T03:34:19.974Z,90.04
2024-01-17T03:39:23.481Z,90.15
2024-01-17T03:44:28.065Z,90.57
2024-01-17T03:49:31.252Z,91.66
2024-01-17T03:54:34.375Z,90.76
2024-01-17T03:59:38.883Z,91.75
2024-01-17T04:04:42.946Z,92.26
2024-01-17T04:09:46.497Z,92.57
2024-01-17T04:14:51.054Z,92.99
2024-01-17T04:19:54.343Z,94.04
2024-01-17T04:24:57.470Z,94.12
2024-01-17T04:30:02.050Z,93.92
2024-01-17T04:35:06.067Z,93.07
2024-01-17T04:40:11.293Z,94.23
2024-01-17T04:45:15.827Z,93.18
2024-01-17T04:50:19.231Z,94.62
2024-01-17T04:55:22.395Z,93.91
2024-01-17T05:00:27.155Z,96.31
2024-01-17T05:05:30.333Z,96.25
2024-01-17T05:10:33.515Z,96.89
2024-01-17T05:15:38.482Z,96.61
2024-01-17T05:20:42.316Z,96.11
2024-01-17T05:25:45.490Z,95.41
2024-01-17T05:30:50.506Z,96.46
2024-01-17T05:35:53.677Z,96.29
2024-01-17T05:40:58.006Z,96.89
2024-01-17T05:46:03.299Z,98.85
2024-01-17T05:51:07.423Z,99.18
2024-01-17T05:56:10.630Z,98.33
2024-01-17T06:01:15.586Z,99.23
2024-01-17T06:06:19.110Z,100.00
2024-01-17T06:11:22.332Z,100.00
2024-01-17T06:16:26.817Z,100.00
2024-01-17T06:21:31.018Z,100.00
2024-01-17T06:26:34.386Z,100.00
2024-01-17T06:31:39.360Z,100.00
2024-01-17T06:36:43.898Z,100.00
2024-01-17T06:41:47.606Z,100.00
2024-01-17T06:46:52.148Z,100.00
2024-01-17T06:51:55.289Z,100.00
2024-01-17T06:56:58.491Z,100.00
2024-01-17T07:02:03.009Z,100.00
2024-01-17T07:07:06.213Z,100.00
2024-01-17T07:12:09.601Z,100.00
2024-01-17T07:17:14.057Z,100.00
2024-01-17T07:22:17.306Z,100.00
2024-01-17T07:27:20.479Z,100.00
2024-01-17T07:32:25.025Z,100.00
2024-01-17T07:37:28.191Z,100.00
2024-01-17T07:42:31.261Z,100.00
2024-01-17T07:47:35.849Z,100.00
2024-01-17T07:52:39.258Z,100.00
2024-01-17T07:57:42.370Z,100.00
2024-01-17T08:02:46.923Z,100.00
2024-01-17T08:07:50.048Z,100.00
2024-01-17T08:12:53.194Z,100.00
2024-01-17T08:17:57.691Z,100.00
2024-01-17T08:23:00.827Z,100.00
2024-01-17T08:28:04.634Z,100.00
2024-01-17T08:33:09.272Z,100.00
2024-01-17T08:38:12.673Z,100.00
2024-01-17T08:43:15.780Z,100.00
2024-01-17T08:48:20.555Z,100.00
2024-01-17T08:53:23.729Z,100.00
2024-01-17T08:58:27.063Z,100.00
2024-01-17T09:03:33.500Z,100.00
2024-01-17T09:08:36.755Z,100.00
2024-01-17T09:13:39.890Z,100.00
2024-01-17T09:18:44.436Z,100.00
2024-01-17T09:23:47.615Z,100.00
2024-01-17T09:28:50.799Z,100.00
2024-01-17T09:33:55.414Z,100.00
2024-01-17T09:38:58.692Z,100.00
2024-01-17T09:44:04.250Z,100.00
2024-01-17T09:49:09.383Z,100.00
2024-01-17T09:54:16.370Z,100.00
2024-01-17T09:59:29.014Z,100.00
2024-01-17T10:04:35.763Z,100.00
2024-01-17T10:09:39.812Z,100.00
2024-01-17T10:14:43.103Z,100.00
2024-01-17T10:19:48.894Z,100.00
2024-01-17T10:24:54.417Z,100.00
2024-01-17T10:29:57.965Z,100.00
2024-01-17T10:35:06.828Z,100.00
2024-01-17T10:40:12.918Z,100.00
2024-01-17T10:45:24.828Z,100.00
2024-01-17T10:50:31.714Z,100.00
2024-01-17T10:55:39.840Z,100.00
2024-01-17T11:00:46.608Z,100.00
2024-01-17T11:05:52.618Z,100.00
2024-01-17T11:10:56.904Z,100.00
2024-01-17T11:16:02.918Z,100.00
2024-01-17T11:21:07.738Z,100.00
2024-01-17T11:26:20.017Z,100.00
2024-01-17T11:31:39.433Z,100.00
2024-01-17T11:36:47.058Z,100.00
2024-01-17T11:41:52.349Z,100.00
2024-01-17T11:46:56.049Z,100.00
2024-01-17T11:52:00.777Z,100.00
2024-01-17T11:57:08.078Z,100.00
2024-01-17T12:02:38.163Z,100.00
2024-01-17T12:07:45.078Z,100.00
2024-01-17T12:12:48.429Z,100.00
2024-01-17T12:17:51.802Z,100.00
2024-01-17T12:22:56.663Z,100.00
2024-01-17T12:27:59.945Z,100.00
2024-01-17T12:33:04.142Z,100.00
2024-01-17T12:38:09.310Z,100.00
2024-01-17T12:43:13.155Z,100.00
2024-01-17T12:48:17.088Z,100.00
2024-01-17T12:53:21.658Z,100.00
2024-01-17T12:58:25.090Z,100.00
2024-01-17T13:03:28.252Z,100.00
2024-01-17T13:08:32.785Z,100.00
2024-01-17T13:13:36.061Z,100.00
2024-01-17T13:18:39.222Z,100.00
2024-01-17T13:23:43.747Z,100.00
2024-01-17T13:28:46.880Z,100.00
2024-01-17T13:33:51.150Z,100.00
2024-01-17T13:38:55.847Z,100.00
2024-01-17T13:43:58.991Z,100.00
2024-01-17T13:49:02.206Z,100.00
2024-01-17T13:54:16.306Z,100.00
2024-01-17T13:59:19.892Z,100.00
2024-01-17T14:04:23.519Z,100.00
2024-01-17T14:09:31.552Z,100.00
2024-01-17T14:14:34.801Z,100.00
2024-01-17T14:19:38.135Z,100.00
2024-01-17T14:24:42.822Z,100.00
2024-01-17T14:29:45.956Z,100.00
2024-01-17T14:34:49.168Z,100.00
2024-01-17T14:39:53.752Z,100.00
2024-01-17T14:44:57.333Z,100.00
2024-01-17T14:50:00.687Z,100.00
2024-01-17T14:55:08.152Z,100.00
2024-01-17T15:00:20.376Z,100.00
2024-01-17T15:05:25.904Z,100.00
2024-01-17T15:10:30.492Z,100.00
2024-01-17T15:15:33.635Z,100.00
2024-01-17T15:20:36.812Z,100.00
2024-01-17T15:25:41.912Z,100.00
2024-01-17T15:30:46.250Z,100.00
2024-01-17T15:35:49.642Z,100.00
2024-01-17T15:41:00.029Z,100.00
2024-01-17T15:46:03.120Z,100.00
2024-01-17T15:51:07.527Z,100.00
2024-01-17T15:56:13.498Z,100.00
2024-01-17T16:01:16.665Z,100.00
2024-01-17T16:06:20.173Z,100.00
2024-01-17T16:11:24.777Z,100.00
2024-01-17T16:16:27.889Z,100.00
2024-01-17T16:21:32.067Z,100.00
2024-01-17T16:26:36.577Z,100.00
2024-01-17T16:31:46.247Z,100.00
2024-01-17T16:36:49.384Z,100.00
2024-01-17T16:41:53.813Z,100.00
2024-01-17T16:46:56.983Z,100.00
2024-01-17T16:52:00.069Z,100.00
2024-01-17T16:57:05.051Z,100.00
2024-01-17T17:02:08.166Z,100.00
2024-01-17T17:07:11.298Z,100.00
2024-01-17T17:12:15.867Z,100.00
2024-01-17T17:17:19.054Z,100.00
2024-01-17T17:22:30.067Z,100.00
2024-01-17T17:27:38.504Z,100.00
2024-01-17T17:32:41.832Z,100.00
2024-01-17T17:37:45.032Z,100.00
2024-01-17T17:42:49.542Z,100.00
2024-01-17T17:47:52.792Z,100.00
2024-01-17T17:52:56.284Z,100.00
2024-01-17T17:58:00.741Z,100.00
2024-01-17T18:03:06.052Z,100.00
2024-01-17T18:08:11.500Z,100.00
2024-01-17T18:13:16.032Z,100.00
2024-01-17T18:18:19.374Z,100.00
2024-01-17T18:23:22.773Z,100.00
2024-01-17T18:28:27.408Z,100.00
2024-01-17T18:33:30.593Z,100.00
2024-01-17T18:38:34.494Z,100.00
2024-01-17T18:43:40.793Z,100.00
2024-01-17T18:48:44.814Z,100.00
2024-01-17T18:53:49.447Z,100.00
2024-01-17T18:58:55.369Z,100.00
2024-01-17T19:04:00.457Z,100.00
2024-01-17T19:09:06.672Z,100.00
2024-01-17T19:14:11.893Z,100.00
2024-01-17T19:19:15.244Z,100.00
2024-01-17T19:24:19.268Z,100.00
2024-01-17T19:29:23.715Z,100.00
2024-01-17T19:34:27.277Z,100.00
2024-01-17T19:39:30.438Z,100.00
2024-01-17T19:44:35.663Z,100.00
2024-01-17T19:49:39.423Z,100.00
2024-01-17T19:54:44.513Z,100.00
2024-01-17T19:59:49.199Z,100.00
2024-01-17T20:04:53.299Z,100.00
2024-01-17T20:09:57.496Z,100.00
2024-01-17T20:15:02.341Z,100.00
2024-01-17T20:20:07.284Z,100.00
2024-01-17T20:25:14.523Z,100.00
2024-01-17T20:30:21.664Z,100.00
2024-01-17T20:35:25.163Z,100.00
2024-01-17T20:40:30.111Z,100.00
2024-01-17T20:45:34.671Z,100.00
2024-01-17T20:50:37.795Z,100.00
2024-01-17T20:55:41.314Z,100.00
2024-01-17T21:00:45.883Z,100.00
2024-01-17T21:05:49.169Z,100.00
2024-01-17T21:10:52.325Z,100.00
2024-01-17T21:15:57.282Z,100.00
2024-01-17T21:21:00.727Z,100.00
2024-01-17T21:26:04.821Z,100.00
2024-01-17T21:31:09.275Z,100.00
2024-01-17T21:36:22.949Z,100.00
2024-01-17T21:41:27.211Z,100.00
2024-01-17T21:46:31.871Z,100.00
2024-01-17T21:51:37.652Z,100.00
2024-01-17T21:56:40.867Z,100.00
2024-01-17T22:01:45.351Z,100.00
2024-01-17T22:06:48.518Z,100.00
2024-01-17T22:11:51.704Z,100.00
2024-01-17T22:16:56.479Z,100.00
2024-01-17T22:21:59.567Z,100.00
2024-01-17T22:27:02.858Z,100.00
2024-01-17T22:32:07.887Z,100.00
2024-01-17T22:37:11.131Z,100.00
2024-01-17T22:42:14.646Z,100.00
2024-01-17T22:47:19.096Z,100.00
2024-01-17T22:52:22.186Z,100.00
2024-01-17T22:57:25.660Z,100.00
2024-01-17T23:02:30.597Z,100.00
2024-01-17T23:07:33.732Z,100.00
2024-01-17T23:12:36.898Z,100.00
2024-01-17T23:17:41.542Z,100.00
2024-01-17T23:22:44.698Z,100.00
2024-01-17T23:27:47.758Z,100.00
2024-01-17T23:32:52.429Z,100.00
2024-01-17T23:37:55.648Z,100.00
2024-01-17T23:42:58.727Z,100.00
2024-01-17T23:48:03.338Z,100.00
2024-01-17T23:53:06.492Z,100.00
2024-01-17T23:58:09.770Z,100.00
